createdAt,value
2023-04-14T00:00:00.636Z,0.0
2023-04-14T00:05:01.617Z,0.0
2023-04-14T00:10:01.695Z,0.0
2023-04-14T00:15:00.638Z,0.0
2023-04-14T00:20:00.604Z,0.0
2023-04-14T00:25:00.553Z,0.0
2023-04-14T00:30:00.644Z,0.0
2023-04-14T00:35:00.610Z,0.0
2023-04-14T00:40:00.644Z,0.0
2023-04-14T00:45:00.630Z,0.0
2023-04-14T00:50:00.664Z,0.0
2023-04-14T00:55:00.627Z,0.0
2023-04-14T01:00:00.772Z,0.0
2023-04-14T01:05:01.167Z,0.0
2023-04-14T01:10:00.603Z,0.0
2023-04-14T01:15:00.605Z,0.0
2023-04-14T01:20:00.730Z,0.0
2023-04-14T01:25:00.804Z,0.0
2023-04-14T01:30:00.640Z,0.0
2023-04-14T01:35:00.619Z,0.0
2023-04-14T01:40:00.621Z,0.0
2023-04-14T01:45:00.619Z,0.0
2023-04-14T01:50:00.612Z,0.0
2023-04-14T01:55:00.548Z,0.0
2023-04-14T02:00:00.623Z,0.0
2023-04-14T02:05:00.600Z,0.0
2023-04-14T02:10:00.555Z,0.0
2023-04-14T02:15:00.640Z,0.0
2023-04-14T02:20:00.616Z,0.0
2023-04-14T02:25:00.590Z,1.4
2023-04-14T02:30:00.722Z,3.2
2023-04-14T02:35:00.756Z,3.6
2023-04-14T02:40:00.598Z,4.0
2023-04-14T02:45:00.628Z,3.6
2023-04-14T02:50:00.621Z,4.3
2023-04-14T02:55:00.664Z,3.6
2023-04-14T03:00:00.643Z,5.8
2023-04-14T03:05:00.591Z,5.0
2023-04-14T03:10:00.614Z,3.2
2023-04-14T03:15:00.765Z,5.8
2023-04-14T03:20:00.605Z,4.7
2023-04-14T03:25:00.650Z,4.7
2023-04-14T03:30:00.642Z,2.2
2023-04-14T03:35:00.587Z,2.9
2023-04-14T03:40:00.857Z,1.8
2023-04-14T03:45:00.786Z,2.5
2023-04-14T03:50:00.602Z,3.2
2023-04-14T03:55:00.597Z,5.0
2023-04-14T04:00:00.623Z,4.3
2023-04-14T04:05:01.052Z,5.0
2023-04-14T04:10:00.754Z,5.0
2023-04-14T04:15:00.632Z,4.3
2023-04-14T04:20:00.636Z,4.7
2023-04-14T04:25:00.576Z,4.0
2023-04-14T04:30:00.662Z,1.4
2023-04-14T04:35:00.623Z,2.5
2023-04-14T04:40:00.632Z,1.8
2023-04-14T04:45:00.627Z,2.9
2023-04-14T04:50:00.603Z,2.9
2023-04-14T04:55:00.616Z,2.2
2023-04-14T05:00:00.627Z,0.0
2023-04-14T05:05:00.600Z,0.0
2023-04-14T05:10:00.558Z,1.4
2023-04-14T05:15:00.820Z,1.4
2023-04-14T05:20:00.698Z,0.0
2023-04-14T05:25:00.619Z,1.8
2023-04-14T05:30:00.618Z,2.2
2023-04-14T05:35:00.620Z,0.0
2023-04-14T05:40:00.643Z,0.0
2023-04-14T05:45:00.627Z,2.9
2023-04-14T05:50:00.597Z,1.8
2023-04-14T05:55:00.616Z,4.0
2023-04-14T06:00:00.628Z,0.0
2023-04-14T06:05:01.004Z,2.2
2023-04-14T06:10:00.622Z,2.9
2023-04-14T06:15:00.625Z,1.8
2023-04-14T06:20:00.747Z,0.0
2023-04-14T06:25:00.690Z,0.0
2023-04-14T06:30:00.627Z,4.0
2023-04-14T06:35:00.644Z,4.7
2023-04-14T06:40:00.644Z,5.8
2023-04-14T06:45:00.623Z,3.6
2023-04-14T06:50:00.635Z,3.2
2023-04-14T06:55:00.886Z,3.2
2023-04-14T07:00:00.646Z,4.0
2023-04-14T07:05:00.855Z,2.5
2023-04-14T07:10:00.883Z,3.2
2023-04-14T07:15:00.785Z,1.4
2023-04-14T07:20:00.624Z,1.8
2023-04-14T07:25:00.769Z,2.5
2023-04-14T07:30:00.621Z,2.2
2023-04-14T07:35:00.739Z,6.1
2023-04-14T07:40:00.682Z,6.5
2023-04-14T07:45:00.673Z,4.3
2023-04-14T07:50:00.689Z,3.2
2023-04-14T07:55:00.645Z,3.6
2023-04-14T08:00:00.644Z,6.5
2023-04-14T08:05:00.774Z,8.3
2023-04-14T08:10:00.597Z,4.3
2023-04-14T08:15:00.723Z,4.0
2023-04-14T08:20:00.650Z,8.6
2023-04-14T08:25:00.604Z,6.1
2023-04-14T08:30:00.712Z,4.3
2023-04-14T08:35:36.719Z,7.2
2023-04-14T08:40:00.608Z,11.2
2023-04-14T08:45:00.625Z,8.3
2023-04-14T08:50:00.657Z,8.3
2023-04-14T08:55:00.627Z,7.6
2023-04-14T09:00:00.725Z,8.6
2023-04-14T09:05:00.871Z,8.6
2023-04-14T09:10:00.628Z,7.2
2023-04-14T09:15:00.676Z,9.7
2023-04-14T09:20:34.447Z,9.0
2023-04-14T09:25:00.619Z,11.5
2023-04-14T09:30:00.657Z,10.1
2023-04-14T09:35:00.732Z,6.1
2023-04-14T09:40:00.566Z,13.0
2023-04-14T09:45:00.615Z,7.6
2023-04-14T09:50:00.645Z,9.4
2023-04-14T09:55:00.600Z,11.9
2023-04-14T10:00:00.679Z,11.9
2023-04-14T10:05:00.720Z,9.7
2023-04-14T10:10:00.559Z,14.8
2023-04-14T10:15:00.666Z,7.9
2023-04-14T10:20:00.682Z,13.3
2023-04-14T10:25:00.562Z,9.7
2023-04-14T10:30:00.596Z,8.3
2023-04-14T10:35:00.683Z,13.0
2023-04-14T10:40:00.687Z,12.6
2023-04-14T10:45:00.683Z,12.6
2023-04-14T10:50:00.618Z,10.1
2023-04-14T10:55:00.626Z,6.8
2023-04-14T11:00:00.741Z,17.3
2023-04-14T11:05:00.655Z,14.8
2023-04-14T11:10:00.689Z,9.4
2023-04-14T11:15:00.653Z,11.5
2023-04-14T11:20:00.616Z,19.1
2023-04-14T11:25:00.657Z,14.4
2023-04-14T11:30:00.672Z,5.0
2023-04-14T11:35:00.624Z,16.2
2023-04-14T11:40:00.599Z,13.7
2023-04-14T11:45:00.663Z,7.6
2023-04-14T11:50:00.635Z,10.4
2023-04-14T11:55:00.681Z,9.7
2023-04-14T12:00:00.696Z,13.0
2023-04-14T12:05:01.634Z,8.3
2023-04-14T12:10:00.700Z,5.0
2023-04-14T12:15:00.645Z,13.0
2023-04-14T12:20:00.650Z,15.1
2023-04-14T12:25:00.644Z,11.5
2023-04-14T12:30:00.636Z,11.9
2023-04-14T12:35:00.619Z,15.5
2023-04-14T12:40:00.833Z,8.6
2023-04-14T12:45:00.823Z,14.4
2023-04-14T12:50:00.621Z,13.3
2023-04-14T12:55:00.615Z,9.7
2023-04-14T13:00:00.711Z,11.2
2023-04-14T13:05:00.552Z,10.8
2023-04-14T13:10:00.623Z,5.8
2023-04-14T13:15:00.659Z,10.8
2023-04-14T13:20:00.623Z,10.1
2023-04-14T13:25:00.792Z,10.1
2023-04-14T13:30:00.688Z,9.7
2023-04-14T13:35:00.579Z,9.7
2023-04-14T13:40:00.650Z,13.0
2023-04-14T13:45:00.776Z,15.1
2023-04-14T13:50:00.583Z,12.6
2023-04-14T13:55:00.646Z,8.3
2023-04-14T14:00:00.677Z,9.7
2023-04-14T14:05:00.609Z,16.9
2023-04-14T14:10:00.710Z,12.2
2023-04-14T14:15:00.666Z,14.8
2023-04-14T14:20:00.627Z,4.7
2023-04-14T14:25:21.369Z,14.4
2023-04-14T14:30:00.600Z,10.4
2023-04-14T14:35:00.590Z,11.9
2023-04-14T14:40:00.684Z,12.6
2023-04-14T14:45:01.428Z,3.6
2023-04-14T14:50:07.846Z,14.8
2023-04-14T14:55:00.647Z,12.6
2023-04-14T15:00:00.708Z,11.5
2023-04-14T15:05:00.631Z,6.8
2023-04-14T15:10:00.626Z,9.4
2023-04-14T15:15:00.659Z,8.6
2023-04-14T15:20:00.615Z,9.4
2023-04-14T15:25:00.663Z,5.4
2023-04-14T15:30:00.850Z,11.2
2023-04-14T15:35:00.633Z,7.6
2023-04-14T15:40:00.733Z,11.9
2023-04-14T15:45:00.665Z,8.3
2023-04-14T15:50:19.044Z,5.0
2023-04-14T15:55:00.621Z,9.7
2023-04-14T16:00:00.633Z,6.8
2023-04-14T16:05:00.767Z,5.8
2023-04-14T16:10:00.637Z,8.6
2023-04-14T16:15:00.653Z,8.6
2023-04-14T16:20:00.659Z,6.1
2023-04-14T16:25:00.617Z,5.0
2023-04-14T16:30:00.735Z,8.6
2023-04-14T16:35:00.659Z,6.5
2023-04-14T16:40:00.864Z,9.4
2023-04-14T16:45:00.651Z,4.0
2023-04-14T16:50:00.902Z,5.0
2023-04-14T16:55:01.436Z,6.1
2023-04-14T17:00:00.914Z,7.2
2023-04-14T17:05:01.304Z,6.8
2023-04-14T17:10:00.625Z,5.8
2023-04-14T17:15:00.735Z,3.6
2023-04-14T17:20:00.752Z,13.0
2023-04-14T17:25:00.612Z,5.4
2023-04-14T17:30:00.602Z,9.4
2023-04-14T17:35:00.532Z,8.6
2023-04-14T17:40:00.672Z,7.9
2023-04-14T17:45:00.605Z,7.9
2023-04-14T17:50:00.570Z,1.8
2023-04-14T17:55:00.596Z,4.0
2023-04-14T18:00:00.611Z,5.0
2023-04-14T18:05:00.598Z,4.7
2023-04-14T18:10:00.618Z,5.8
2023-04-14T18:15:00.671Z,3.6
2023-04-14T18:20:00.607Z,3.2
2023-04-14T18:25:00.700Z,3.2
2023-04-14T18:30:00.695Z,3.2
2023-04-14T18:35:00.637Z,6.5
2023-04-14T18:40:00.651Z,5.0
2023-04-14T18:45:00.665Z,0.0
2023-04-14T18:50:00.648Z,2.9
2023-04-14T18:55:00.603Z,1.4
2023-04-14T19:00:00.670Z,5.0
2023-04-14T19:05:00.934Z,4.0
2023-04-14T19:10:00.603Z,2.5
2023-04-14T19:15:00.614Z,4.7
2023-04-14T19:20:00.596Z,3.2
2023-04-14T19:25:00.664Z,8.6
2023-04-14T19:30:00.632Z,2.2
2023-04-14T19:35:00.585Z,3.2
2023-04-14T19:40:00.615Z,4.0
2023-04-14T19:45:00.822Z,5.4
2023-04-14T19:50:00.658Z,5.8
2023-04-14T19:55:00.636Z,6.1
2023-04-14T20:00:00.711Z,3.6
2023-04-14T20:10:00.551Z,5.0
2023-04-14T20:15:00.493Z,5.8
2023-04-14T20:20:00.485Z,5.0
2023-04-14T20:25:00.488Z,2.5
2023-04-14T20:30:00.515Z,4.0
2023-04-14T20:35:00.495Z,4.7
2023-04-14T20:40:00.532Z,6.1
2023-04-14T20:45:00.544Z,7.2
2023-04-14T20:50:00.477Z,3.2
2023-04-14T20:55:00.419Z,6.8
2023-04-14T21:00:00.507Z,1.8
2023-04-14T21:05:00.480Z,3.2
2023-04-14T21:10:00.484Z,0.0
2023-04-14T21:15:30.074Z,0.0
2023-04-14T21:20:00.443Z,3.2
2023-04-14T21:25:00.495Z,0.0
2023-04-14T21:30:00.492Z,2.5
2023-04-14T21:35:00.494Z,2.2
2023-04-14T21:40:00.486Z,5.4
2023-04-14T21:45:00.497Z,1.4
2023-04-14T21:50:00.462Z,2.5
2023-04-14T21:55:00.535Z,0.0
2023-04-14T22:00:00.540Z,6.5
2023-04-14T22:05:00.426Z,4.7
2023-04-14T22:10:00.478Z,4.0
2023-04-14T22:15:00.448Z,4.0
2023-04-14T22:20:00.476Z,5.8
2023-04-14T22:25:00.501Z,6.1
2023-04-14T22:30:00.485Z,4.7
2023-04-14T22:35:00.499Z,5.8
2023-04-14T22:40:00.453Z,3.2
2023-04-14T22:45:00.490Z,7.2
2023-04-14T22:50:00.504Z,8.3
2023-04-14T22:55:00.415Z,9.0
2023-04-14T23:00:00.512Z,11.2
2023-04-14T23:05:00.425Z,10.1
2023-04-14T23:10:00.518Z,7.6
2023-04-14T23:15:00.482Z,6.1
2023-04-14T23:20:00.479Z,9.0
2023-04-14T23:25:00.491Z,6.1
2023-04-14T23:30:00.482Z,9.0
2023-04-14T23:35:00.435Z,7.2
2023-04-14T23:40:00.552Z,6.5
2023-04-14T23:45:00.448Z,5.0
2023-04-14T23:50:00.496Z,11.2
2023-04-14T23:55:00.537Z,8.3
